Time;durP1;ratioP1;P1;durP2;ratioP2;P2;SDS_P1;SDS_P2;PMS_P1;PMS_P2;Temp;Humidity;BMP_temperature;BMP_pressure;BME280_temperature;BME280_humidity;BME280_pressure;Samples;Min_cycle;Max_cycle;Signal;HPM_P1;HPM_P2
2024/01/31 00:02:08;;;;;;;9.85;2.00;;;5.40;99.90;;;;;;5039841;28;20122;-62
2024/01/31 00:04:36;;;;;;;16.00;3.28;;;5.40;99.90;;;;;;5040208;28;20507;-62
2024/01/31 00:07:02;;;;;;;25.80;6.90;;;5.40;99.90;;;;;;5036080;28;20037;-62
2024/01/31 00:09:27;;;;;;;16.05;3.35;;;5.40;99.90;;;;;;5037049;28;20353;-62
2024/01/31 00:11:53;;;;;;;8.25;1.65;;;5.40;99.90;;;;;;5039570;28;20053;-62
2024/01/31 00:14:20;;;;;;;21.90;2.50;;;5.50;99.90;;;;;;5041864;28;20485;-62
2024/01/31 00:16:46;;;;;;;14.85;3.05;;;5.50;99.90;;;;;;5040550;28;20048;-62
2024/01/31 00:19:11;;;;;;;14.45;3.10;;;5.50;99.90;;;;;;5041244;28;20438;-62
2024/01/31 00:21:38;;;;;;;15.73;2.83;;;5.40;99.90;;;;;;5040928;28;20080;-62
2024/01/31 00:24:04;;;;;;;8.95;1.15;;;5.50;99.90;;;;;;5041368;28;20049;-62
2024/01/31 00:26:31;;;;;;;9.88;1.10;;;5.50;99.90;;;;;;5043018;28;20045;-62
2024/01/31 00:28:57;;;;;;;13.60;1.70;;;5.50;99.90;;;;;;5039901;28;20452;-62
2024/01/31 00:31:23;;;;;;;12.45;1.27;;;5.50;99.90;;;;;;5042280;28;20047;-62
2024/01/31 00:33:49;;;;;;;10.32;2.53;;;5.50;99.90;;;;;;5039681;28;20049;-62
2024/01/31 00:36:15;;;;;;;12.98;3.05;;;5.60;99.90;;;;;;5042102;28;20057;-62
2024/01/31 00:38:41;;;;;;;15.25;3.58;;;5.60;99.90;;;;;;5040701;28;20103;-62
2024/01/31 00:41:06;;;;;;;11.88;3.35;;;5.60;99.90;;;;;;5040716;28;20037;-62
2024/01/31 00:43:33;;;;;;;10.32;2.67;;;5.60;99.90;;;;;;5038434;28;20042;-62
2024/01/31 00:46:02;;;;;;;8.00;1.90;;;5.70;99.90;;;;;;5040517;28;20051;-62
2024/01/31 00:48:27;;;;;;;7.60;1.90;;;5.70;99.90;;;;;;5042826;28;20041;-62
2024/01/31 00:50:53;;;;;;;13.65;1.90;;;5.70;99.90;;;;;;5040879;28;20048;-62
2024/01/31 00:53:19;;;;;;;14.35;2.80;;;5.70;99.90;;;;;;5039426;28;20045;-62
2024/01/31 00:55:45;;;;;;;18.10;2.53;;;5.70;99.90;;;;;;5036885;28;20045;-62
2024/01/31 00:58:10;;;;;;;9.73;2.03;;;5.70;99.90;;;;;;5054849;28;20376;-62
2024/01/31 01:00:36;;;;;;;16.98;3.13;;;5.80;99.90;;;;;;5041147;28;20041;-62
2024/01/31 01:03:02;;;;;;;12.25;2.58;;;5.80;99.90;;;;;;5034966;28;20060;-60
2024/01/31 01:05:28;;;;;;;10.65;1.80;;;5.80;99.90;;;;;;5039725;28;20064;-60
2024/01/31 01:07:53;;;;;;;12.88;2.28;;;5.80;99.90;;;;;;5041233;28;20411;-60
2024/01/31 01:10:19;;;;;;;9.73;1.65;;;5.80;99.90;;;;;;5041750;28;20045;-60
2024/01/31 01:12:45;;;;;;;12.75;2.17;;;5.80;99.90;;;;;;5035834;28;20056;-59
2024/01/31 01:15:11;;;;;;;9.75;1.40;;;5.80;99.90;;;;;;5041939;28;20033;-60
2024/01/31 01:17:40;;;;;;;11.98;2.85;;;5.80;99.90;;;;;;5041523;28;20048;-60
2024/01/31 01:20:08;;;;;;;11.77;2.22;;;5.80;99.90;;;;;;5039368;28;20527;-59
2024/01/31 01:22:34;;;;;;;15.60;3.47;;;5.70;99.90;;;;;;5042134;28;20124;-60
2024/01/31 01:25:03;;;;;;;12.10;2.50;;;5.80;99.90;;;;;;5037284;28;20180;-60
2024/01/31 01:27:29;;;;;;;6.80;1.45;;;5.70;99.90;;;;;;5042716;28;20083;-60
2024/01/31 01:29:54;;;;;;;7.95;1.60;;;5.80;99.90;;;;;;5040184;28;20487;-59
2024/01/31 01:32:22;;;;;;;11.27;1.50;;;5.80;99.90;;;;;;5034307;28;20049;-60
2024/01/31 01:34:48;;;;;;;15.30;1.30;;;5.80;99.90;;;;;;5037855;28;20049;-61
2024/01/31 01:37:14;;;;;;;5.60;1.05;;;5.80;99.90;;;;;;5041508;28;20041;-60
2024/01/31 01:39:43;;;;;;;9.45;1.25;;;5.80;99.90;;;;;;5039928;28;20481;-60
2024/01/31 01:42:09;;;;;;;6.70;1.00;;;5.80;99.90;;;;;;5036964;28;20041;-60
2024/01/31 01:44:44;;;;;;;9.25;1.17;;;5.80;99.90;;;;;;5038902;28;20072;-60
2024/01/31 01:47:12;;;;;;;5.68;0.80;;;5.70;99.90;;;;;;5038830;28;20454;-60
2024/01/31 01:49:38;;;;;;;11.38;1.30;;;5.80;99.90;;;;;;5032314;28;20248;-60
2024/01/31 01:52:11;;;;;;;6.68;1.02;;;5.70;99.90;;;;;;5039352;28;20041;-60
2024/01/31 01:54:37;;;;;;;9.32;1.27;;;5.70;99.90;;;;;;5033283;28;20045;-60
2024/01/31 01:57:04;;;;;;;9.88;1.35;;;5.60;99.90;;;;;;5029893;28;20458;-60
2024/01/31 01:59:32;;;;;;;9.10;1.60;;;5.70;99.90;;;;;;5039289;28;20037;-60
2024/01/31 02:01:59;;;;;;;13.65;2.80;;;5.70;99.90;;;;;;5032885;28;20077;-60
2024/01/31 02:04:24;;;;;;;15.40;3.50;;;5.60;99.90;;;;;;5027186;28;20048;-60
2024/01/31 02:06:51;;;;;;;19.65;3.20;;;5.60;99.90;;;;;;5039814;28;20063;-60
2024/01/31 02:09:18;;;;;;;9.30;2.00;;;5.60;99.90;;;;;;5042585;28;20041;-60
2024/01/31 02:11:44;;;;;;;13.77;2.25;;;5.60;99.90;;;;;;5044877;28;20396;-60
2024/01/31 02:14:10;;;;;;;12.73;1.23;;;5.60;99.90;;;;;;5043681;28;20563;-60
2024/01/31 02:16:36;;;;;;;2.55;0.55;;;5.60;99.90;;;;;;5044044;28;20128;-60
2024/01/31 02:19:02;;;;;;;6.07;0.77;;;5.60;99.90;;;;;;5044320;28;20056;-60
2024/01/31 02:21:29;;;;;;;13.52;1.25;;;5.60;99.90;;;;;;5043027;28;20446;-60
2024/01/31 02:23:55;;;;;;;4.60;0.63;;;5.60;99.90;;;;;;5045832;28;20467;-60
2024/01/31 02:26:21;;;;;;;11.68;1.17;;;5.60;99.90;;;;;;5042926;28;20041;-60
2024/01/31 02:28:46;;;;;;;5.68;0.70;;;5.50;99.90;;;;;;5043212;28;20464;-60
2024/01/31 02:31:14;;;;;;;5.35;1.17;;;5.50;99.90;;;;;;5044040;28;20053;-59
2024/01/31 02:33:40;;;;;;;5.45;0.80;;;5.40;99.90;;;;;;5044601;28;20505;-59
2024/01/31 02:36:06;;;;;;;10.18;1.02;;;5.30;99.90;;;;;;5044902;28;20159;-59
2024/01/31 02:38:32;;;;;;;4.93;1.17;;;5.20;99.90;;;;;;5040073;28;20040;-60
2024/01/31 02:40:58;;;;;;;14.88;1.25;;;5.20;99.90;;;;;;5056733;28;20057;-59
2024/01/31 02:43:25;;;;;;;5.40;0.85;;;5.20;99.90;;;;;;5043314;28;20040;-59
2024/01/31 02:45:50;;;;;;;8.25;1.30;;;5.10;99.90;;;;;;5044776;28;20056;-60
2024/01/31 02:48:17;;;;;;;8.82;1.10;;;5.10;99.90;;;;;;5041609;28;20033;-59
2024/01/31 02:50:43;;;;;;;9.05;1.25;;;5.10;99.90;;;;;;5042647;28;20055;-60
2024/01/31 02:53:09;;;;;;;4.70;1.15;;;5.20;99.90;;;;;;5043208;28;20120;-59
2024/01/31 02:55:35;;;;;;;9.38;0.98;;;5.20;99.90;;;;;;5042147;28;20123;-60
2024/01/31 02:58:00;;;;;;;9.68;1.00;;;5.20;99.90;;;;;;5044894;28;20053;-59
2024/01/31 03:00:26;;;;;;;3.80;0.60;;;5.20;99.90;;;;;;5032493;28;20116;-59
2024/01/31 03:02:53;;;;;;;7.90;0.82;;;5.20;99.90;;;;;;5060428;28;20075;-60
2024/01/31 03:05:19;;;;;;;5.50;0.85;;;5.20;99.90;;;;;;5040552;28;20072;-60
2024/01/31 03:07:44;;;;;;;5.45;0.88;;;5.20;99.90;;;;;;5044786;28;20040;-60
2024/01/31 03:10:12;;;;;;;8.23;0.90;;;5.20;99.90;;;;;;5041976;28;20053;-59
2024/01/31 03:12:38;;;;;;;8.43;1.02;;;5.20;99.90;;;;;;5043816;28;20047;-60
2024/01/31 03:15:04;;;;;;;8.35;1.08;;;5.20;99.90;;;;;;5044258;28;20049;-60
2024/01/31 03:17:35;;;;;;;13.52;1.58;;;5.20;99.90;;;;;;5040439;28;20045;-59
2024/01/31 03:20:03;;;;;;;5.97;0.73;;;5.20;99.90;;;;;;5042632;28;20121;-60
2024/01/31 03:22:48;;;;;;;9.55;1.00;;;5.20;99.90;;;;;;5040432;28;20628;-59
2024/01/31 03:25:14;;;;;;;10.57;1.20;;;5.10;99.90;;;;;;5033661;28;20060;-60
2024/01/31 03:27:39;;;;;;;4.32;0.82;;;5.10;99.90;;;;;;5042202;28;20403;-59
2024/01/31 03:30:07;;;;;;;7.28;1.00;;;5.00;99.90;;;;;;5058141;28;20400;-59
2024/01/31 03:32:32;;;;;;;6.53;0.90;;;5.00;99.90;;;;;;5042148;28;20044;-59
2024/01/31 03:34:59;;;;;;;8.07;0.93;;;4.90;99.90;;;;;;5038286;28;20084;-60
2024/01/31 03:37:25;;;;;;;9.70;0.93;;;4.90;99.90;;;;;;5040855;28;20045;-60
2024/01/31 03:39:51;;;;;;;3.83;0.50;;;4.80;99.90;;;;;;5042319;28;20522;-59
2024/01/31 03:42:17;;;;;;;12.77;0.93;;;4.80;99.90;;;;;;5040382;28;20041;-59
2024/01/31 03:44:43;;;;;;;10.10;1.00;;;4.80;99.90;;;;;;5042161;28;20064;-60
2024/01/31 03:47:09;;;;;;;6.93;0.90;;;4.80;99.90;;;;;;5038492;28;20523;-59
2024/01/31 03:49:34;;;;;;;4.88;0.60;;;4.80;99.90;;;;;;5043271;28;20049;-60
2024/01/31 03:52:00;;;;;;;6.85;1.05;;;4.70;99.90;;;;;;5039854;28;20053;-60
2024/01/31 03:54:26;;;;;;;12.05;0.98;;;4.70;99.90;;;;;;5043857;28;20087;-60
2024/01/31 03:56:52;;;;;;;8.68;1.10;;;4.70;99.90;;;;;;5040692;28;20041;-60
2024/01/31 03:59:18;;;;;;;8.45;0.80;;;4.70;99.90;;;;;;5042419;28;20053;-59
2024/01/31 04:01:49;;;;;;;7.53;0.60;;;4.70;99.90;;;;;;5042257;28;20500;-59
2024/01/31 04:04:15;;;;;;;5.55;1.25;;;4.70;99.90;;;;;;5043692;28;20052;-60
2024/01/31 04:06:40;;;;;;;3.30;0.80;;;4.70;99.90;;;;;;5036931;28;20045;-60
2024/01/31 04:09:08;;;;;;;3.03;0.90;;;4.70;99.90;;;;;;5039578;28;20517;-59
2024/01/31 04:11:34;;;;;;;7.47;0.73;;;4.70;99.90;;;;;;5035970;28;20072;-60
2024/01/31 04:14:01;;;;;;;8.30;0.80;;;4.70;99.90;;;;;;5041252;28;20385;-59
2024/01/31 04:16:27;;;;;;;7.47;1.08;;;4.70;99.90;;;;;;5042484;28;20029;-59
2024/01/31 04:18:54;;;;;;;4.32;0.50;;;4.70;99.90;;;;;;5041694;28;20041;-59
2024/01/31 04:21:24;;;;;;;9.02;0.77;;;4.70;99.90;;;;;;5042184;28;20059;-60
2024/01/31 04:23:50;;;;;;;4.75;0.70;;;4.70;99.90;;;;;;5043769;28;20463;-59
2024/01/31 04:26:16;;;;;;;7.82;0.93;;;4.70;99.90;;;;;;5040517;28;20106;-60
2024/01/31 04:28:41;;;;;;;4.70;1.15;;;4.70;99.90;;;;;;5040170;28;20471;-60
2024/01/31 04:31:16;;;;;;;6.68;1.20;;;4.80;99.90;;;;;;5034346;28;20148;-60
2024/01/31 04:33:43;;;;;;;8.15;1.13;;;4.80;99.90;;;;;;5024878;28;20048;-60
2024/01/31 04:36:09;;;;;;;7.10;0.73;;;4.80;99.90;;;;;;5023205;28;20364;-59
2024/01/31 04:38:36;;;;;;;6.80;1.30;;;4.80;99.90;;;;;;5038078;28;20055;-59
2024/01/31 04:41:03;;;;;;;14.10;0.90;;;4.80;99.90;;;;;;5041438;28;20090;-59
2024/01/31 04:43:29;;;;;;;6.15;1.48;;;4.80;99.90;;;;;;5037692;28;20052;-60
2024/01/31 04:45:55;;;;;;;8.50;1.23;;;4.80;99.90;;;;;;5041011;28;20047;-59
2024/01/31 04:48:21;;;;;;;6.00;0.73;;;4.80;99.90;;;;;;5038529;28;20255;-59
2024/01/31 04:50:47;;;;;;;3.13;0.82;;;4.80;99.90;;;;;;5041406;28;20052;-60
2024/01/31 04:53:13;;;;;;;4.78;0.98;;;4.80;99.90;;;;;;5039557;28;20045;-59
2024/01/31 04:55:39;;;;;;;5.13;1.13;;;4.80;99.90;;;;;;5038438;28;20057;-60
2024/01/31 04:58:05;;;;;;;10.18;0.98;;;4.70;99.90;;;;;;5039312;28;20048;-59
2024/01/31 05:00:31;;;;;;;9.57;1.15;;;4.80;99.90;;;;;;5041397;28;20045;-59
2024/01/31 05:02:57;;;;;;;6.72;1.10;;;4.70;99.90;;;;;;5040601;28;20084;-59
2024/01/31 05:05:22;;;;;;;12.30;1.17;;;4.70;99.90;;;;;;5039349;28;20504;-60
2024/01/31 05:07:48;;;;;;;7.95;1.20;;;4.70;99.90;;;;;;5040753;28;20162;-60
2024/01/31 05:10:14;;;;;;;4.95;0.80;;;4.70;99.90;;;;;;5029158;28;20064;-59
2024/01/31 05:12:40;;;;;;;7.93;1.00;;;4.60;99.90;;;;;;5039694;28;20335;-60
2024/01/31 05:15:06;;;;;;;7.00;0.93;;;4.50;99.90;;;;;;5044593;28;20053;-59
2024/01/31 05:17:32;;;;;;;8.20;0.70;;;4.40;99.90;;;;;;5039665;28;20054;-60
2024/01/31 05:19:59;;;;;;;7.03;1.27;;;4.40;99.90;;;;;;5041968;28;20053;-59
2024/01/31 05:22:26;;;;;;;6.80;0.90;;;4.20;99.90;;;;;;5031297;28;20049;-59
2024/01/31 05:24:51;;;;;;;7.35;0.88;;;4.20;99.90;;;;;;5040832;28;20060;-59
2024/01/31 05:27:17;;;;;;;14.13;0.75;;;4.00;99.90;;;;;;5033636;28;20040;-59
2024/01/31 05:29:43;;;;;;;5.97;0.55;;;4.00;99.90;;;;;;5041842;28;20079;-60
2024/01/31 05:32:09;;;;;;;5.22;1.02;;;3.90;99.90;;;;;;5038709;28;20052;-59
2024/01/31 05:34:44;;;;;;;8.27;1.00;;;3.80;99.90;;;;;;5040268;28;20091;-59
2024/01/31 05:37:11;;;;;;;3.13;0.77;;;3.70;99.90;;;;;;5041867;28;20118;-60
2024/01/31 05:39:37;;;;;;;7.93;0.77;;;3.70;99.90;;;;;;5039701;28;20041;-59
2024/01/31 05:42:03;;;;;;;6.68;0.93;;;3.70;99.90;;;;;;5038246;28;20476;-59
2024/01/31 05:44:28;;;;;;;10.15;1.02;;;3.60;99.90;;;;;;5025452;28;20076;-60
2024/01/31 05:46:54;;;;;;;5.95;0.80;;;3.60;99.90;;;;;;5044213;28;20056;-59
2024/01/31 05:49:20;;;;;;;5.53;0.55;;;3.60;99.90;;;;;;5043057;28;20090;-60
2024/01/31 05:51:46;;;;;;;6.78;0.88;;;3.50;99.90;;;;;;5044157;28;20486;-59
2024/01/31 05:54:11;;;;;;;12.05;1.00;;;3.50;99.90;;;;;;5043099;28;20052;-60
2024/01/31 05:56:38;;;;;;;1.67;0.60;;;3.50;99.90;;;;;;5045305;28;20051;-60
2024/01/31 05:59:05;;;;;;;3.78;0.93;;;3.40;99.90;;;;;;5045422;28;20061;-59
2024/01/31 06:01:33;;;;;;;3.22;0.90;;;3.40;99.90;;;;;;5044046;28;20206;-59
2024/01/31 06:03:59;;;;;;;10.02;0.90;;;3.40;99.90;;;;;;5044428;28;20053;-60
2024/01/31 06:06:26;;;;;;;12.40;1.33;;;3.40;99.90;;;;;;5044726;28;20048;-59
2024/01/31 06:08:52;;;;;;;4.18;0.63;;;3.40;99.90;;;;;;5044736;28;20049;-60
2024/01/31 06:11:17;;;;;;;5.63;0.80;;;3.40;99.90;;;;;;5043504;28;20047;-59
2024/01/31 06:13:43;;;;;;;3.80;0.98;;;3.40;99.90;;;;;;5044060;28;20102;-59
2024/01/31 06:16:10;;;;;;;4.20;0.88;;;3.40;99.90;;;;;;5043818;28;20094;-59
2024/01/31 06:18:37;;;;;;;3.50;0.70;;;3.40;99.90;;;;;;5043077;28;20045;-60
2024/01/31 06:21:04;;;;;;;7.40;1.13;;;3.40;99.90;;;;;;5043264;28;20092;-60
2024/01/31 06:23:30;;;;;;;6.65;1.10;;;3.40;99.90;;;;;;5042086;28;20070;-60
2024/01/31 06:25:59;;;;;;;5.25;0.85;;;3.40;99.90;;;;;;5044120;28;20045;-60
2024/01/31 06:28:25;;;;;;;4.47;1.75;;;3.40;99.90;;;;;;5041388;28;20506;-60
2024/01/31 06:30:58;;;;;;;6.25;0.90;;;3.40;99.90;;;;;;5043392;28;20060;-59
2024/01/31 06:33:31;;;;;;;4.90;0.80;;;3.50;99.90;;;;;;5039557;28;20724;-60
2024/01/31 06:35:57;;;;;;;7.85;1.15;;;3.50;99.90;;;;;;5040842;28;20049;-59
2024/01/31 06:38:24;;;;;;;3.53;0.80;;;3.50;99.90;;;;;;5043017;28;20518;-59
2024/01/31 06:40:49;;;;;;;1.70;0.55;;;3.50;99.90;;;;;;5040822;28;20045;-60
2024/01/31 06:43:15;;;;;;;4.88;0.80;;;3.50;99.90;;;;;;5037724;28;20110;-59
2024/01/31 06:45:45;;;;;;;5.90;0.70;;;3.60;99.90;;;;;;5042544;28;20041;-59
2024/01/31 06:48:11;;;;;;;3.38;0.63;;;3.60;99.90;;;;;;5044473;28;20068;-60
2024/01/31 06:50:43;;;;;;;3.88;1.27;;;3.60;99.90;;;;;;5044921;28;20045;-59
2024/01/31 06:53:08;;;;;;;4.90;0.52;;;3.60;99.90;;;;;;5040284;28;20037;-60
2024/01/31 06:55:34;;;;;;;11.18;0.90;;;3.70;99.90;;;;;;5042432;28;20037;-59
2024/01/31 06:58:00;;;;;;;7.28;0.80;;;3.70;99.90;;;;;;5043054;28;20045;-59
2024/01/31 07:00:26;;;;;;;10.57;1.10;;;3.70;99.90;;;;;;5043141;28;20526;-59
2024/01/31 07:02:53;;;;;;;8.10;1.10;;;3.80;99.90;;;;;;5041526;28;20045;-59
2024/01/31 07:05:21;;;;;;;7.68;1.17;;;3.90;99.90;;;;;;5044892;28;20041;-59
2024/01/31 07:07:48;;;;;;;11.35;1.27;;;3.90;99.90;;;;;;5043254;28;20055;-59
2024/01/31 07:10:15;;;;;;;11.23;1.15;;;4.00;99.90;;;;;;5039654;28;20056;-60
2024/01/31 07:12:43;;;;;;;9.40;1.10;;;4.00;99.90;;;;;;5025048;28;20440;-59
2024/01/31 07:15:10;;;;;;;7.60;0.80;;;4.10;99.90;;;;;;5042631;28;20048;-60
2024/01/31 07:17:37;;;;;;;6.47;0.65;;;4.10;99.90;;;;;;5041776;28;20516;-59
2024/01/31 07:20:03;;;;;;;15.70;1.20;;;4.10;99.90;;;;;;5031248;28;20045;-59
2024/01/31 07:22:29;;;;;;;6.55;0.82;;;4.20;99.90;;;;;;5037644;28;20116;-59
2024/01/31 07:24:55;;;;;;;5.82;0.90;;;4.20;99.90;;;;;;5043302;28;20127;-59
2024/01/31 07:27:21;;;;;;;3.55;0.68;;;4.20;99.90;;;;;;5040971;28;20572;-59
2024/01/31 07:29:47;;;;;;;7.45;0.65;;;4.20;99.90;;;;;;5027850;28;20055;-59
2024/01/31 07:32:12;;;;;;;16.02;1.15;;;4.20;99.90;;;;;;5010473;28;20120;-60
2024/01/31 07:34:38;;;;;;;10.77;0.93;;;4.30;99.90;;;;;;5023118;28;20064;-60
2024/01/31 07:37:05;;;;;;;4.18;1.15;;;4.30;99.90;;;;;;5022329;28;20133;-59
2024/01/31 07:39:31;;;;;;;4.70;0.88;;;4.40;99.90;;;;;;5024269;28;20049;-59
2024/01/31 07:41:57;;;;;;;2.50;0.65;;;4.40;99.90;;;;;;5018142;28;20117;-60
2024/01/31 07:44:23;;;;;;;15.88;1.10;;;4.40;99.90;;;;;;5020017;28;20038;-59
2024/01/31 07:46:48;;;;;;;6.30;1.20;;;4.40;99.90;;;;;;5021185;28;20123;-59
2024/01/31 07:49:14;;;;;;;8.38;1.17;;;4.50;99.90;;;;;;5021005;28;20045;-59
2024/01/31 07:51:46;;;;;;;4.45;1.15;;;4.50;99.90;;;;;;5023002;28;20037;-59
2024/01/31 07:54:12;;;;;;;2.95;1.15;;;4.50;99.90;;;;;;5016650;28;20509;-60
2024/01/31 07:56:38;;;;;;;12.73;1.10;;;4.50;99.90;;;;;;5022677;28;20110;-59
2024/01/31 07:59:03;;;;;;;7.05;1.17;;;4.60;99.90;;;;;;5021213;28;20045;-59
2024/01/31 08:01:29;;;;;;;8.77;0.85;;;4.60;99.90;;;;;;5023493;28;20069;-60
2024/01/31 08:03:55;;;;;;;1.75;0.73;;;4.60;99.90;;;;;;5022337;28;20038;-59
2024/01/31 08:06:21;;;;;;;3.00;0.60;;;4.60;99.90;;;;;;5012229;28;20610;-60
2024/01/31 08:08:47;;;;;;;4.68;0.90;;;4.70;99.90;;;;;;5002825;28;20115;-60
2024/01/31 08:11:19;;;;;;;3.47;0.80;;;4.70;99.90;;;;;;5019937;28;20053;-59
2024/01/31 08:13:45;;;;;;;8.02;0.75;;;4.70;99.90;;;;;;5023446;28;20347;-59
2024/01/31 08:16:15;;;;;;;8.48;0.82;;;4.70;99.90;;;;;;5021203;28;20053;-60
2024/01/31 08:18:40;;;;;;;;;;;4.80;99.90;;;;;;5023196;28;20053;-62
2024/01/31 08:21:06;;;;;;;7.00;1.17;;;4.80;99.90;;;;;;5022617;28;19921;-62
2024/01/31 08:23:35;;;;;;;4.80;0.77;;;4.80;99.90;;;;;;5020991;28;20045;-62
2024/01/31 08:26:01;;;;;;;7.35;0.70;;;4.80;99.90;;;;;;5022491;28;20054;-62
2024/01/31 08:28:26;;;;;;;7.28;0.82;;;4.80;99.90;;;;;;5021334;28;20049;-62
2024/01/31 08:30:52;;;;;;;9.05;1.10;;;4.80;99.90;;;;;;5023424;28;20045;-62
2024/01/31 08:33:18;;;;;;;6.32;0.90;;;4.90;99.90;;;;;;5019923;28;20513;-62
2024/01/31 08:35:44;;;;;;;12.38;1.20;;;4.90;99.90;;;;;;5021567;28;20061;-62
2024/01/31 08:38:12;;;;;;;9.52;1.30;;;4.90;99.90;;;;;;5020993;28;20049;-62
2024/01/31 08:40:39;;;;;;;7.07;2.10;;;5.00;99.90;;;;;;5021775;28;20045;-62
2024/01/31 08:43:04;;;;;;;5.85;1.17;;;5.00;99.90;;;;;;5019203;28;20041;-62
2024/01/31 08:45:30;;;;;;;9.43;1.10;;;5.00;99.90;;;;;;5020701;28;20111;-62
2024/01/31 08:47:57;;;;;;;6.75;0.88;;;5.10;99.90;;;;;;5021221;28;20377;-62
2024/01/31 08:50:23;;;;;;;6.05;1.05;;;5.10;99.90;;;;;;5013300;28;20084;-62
2024/01/31 08:52:49;;;;;;;5.15;1.23;;;5.10;99.90;;;;;;5023045;28;20123;-62
2024/01/31 08:55:14;;;;;;;11.43;1.75;;;5.10;99.90;;;;;;5011386;28;20400;-62
2024/01/31 08:57:40;;;;;;;6.60;1.00;;;5.20;99.90;;;;;;5018457;28;20048;-62
2024/01/31 09:00:09;;;;;;;3.60;1.30;;;5.20;99.90;;;;;;5003280;28;20136;-62
2024/01/31 09:02:35;;;;;;;7.27;1.00;;;5.20;99.90;;;;;;5017856;28;20071;-62
2024/01/31 09:05:01;;;;;;;6.00;1.00;;;5.20;99.90;;;;;;5014882;28;20061;-62
2024/01/31 09:07:28;;;;;;;5.10;1.02;;;5.30;99.90;;;;;;5015344;28;20515;-62
2024/01/31 09:09:53;;;;;;;6.00;1.08;;;5.30;99.90;;;;;;5003547;28;20060;-62
2024/01/31 09:12:19;;;;;;;4.57;1.10;;;5.30;99.90;;;;;;5018897;28;20029;-62
2024/01/31 09:14:45;;;;;;;10.75;1.42;;;5.40;99.90;;;;;;5020252;28;20420;-62
2024/01/31 09:17:11;;;;;;;4.15;1.17;;;5.40;99.90;;;;;;5020187;28;20073;-62
2024/01/31 09:19:37;;;;;;;7.60;1.27;;;5.40;99.90;;;;;;5020281;28;20128;-62
2024/01/31 09:22:02;;;;;;;2.75;1.05;;;5.40;99.90;;;;;;5021432;28;20412;-65
2024/01/31 09:24:28;;;;;;;5.32;1.20;;;5.50;99.90;;;;;;5018448;28;20041;-65
2024/01/31 09:26:54;;;;;;;2.58;1.10;;;5.50;99.90;;;;;;5022760;28;20041;-65
2024/01/31 09:29:20;;;;;;;4.80;1.45;;;5.60;99.90;;;;;;5001875;28;20064;-65
2024/01/31 09:31:46;;;;;;;4.40;1.23;;;5.60;99.90;;;;;;5020142;28;20092;-65
2024/01/31 09:34:12;;;;;;;8.02;1.33;;;5.70;99.90;;;;;;5012994;28;20049;-65
2024/01/31 09:36:38;;;;;;;0.88;0.85;;;5.70;99.90;;;;;;5014484;28;20452;-66
2024/01/31 09:39:05;;;;;;;3.25;1.58;;;5.80;99.90;;;;;;5017510;28;21127;-65
2024/01/31 09:41:31;;;;;;;6.07;1.40;;;5.90;99.90;;;;;;5017949;28;20053;-65
2024/01/31 09:43:57;;;;;;;4.03;1.52;;;5.90;99.90;;;;;;5011796;28;20045;-65
2024/01/31 09:46:25;;;;;;;5.15;2.05;;;5.90;99.90;;;;;;5019682;28;20415;-65
2024/01/31 09:48:51;;;;;;;6.15;2.08;;;6.00;99.90;;;;;;5022142;28;20443;-65
2024/01/31 09:51:18;;;;;;;4.80;1.85;;;6.00;99.90;;;;;;5011530;28;20050;-65
2024/01/31 09:53:48;;;;;;;6.07;1.90;;;6.00;99.90;;;;;;5017653;28;20053;-65
2024/01/31 09:56:14;;;;;;;5.22;1.55;;;6.10;99.90;;;;;;5020040;28;20555;-65
2024/01/31 09:58:40;;;;;;;6.97;2.40;;;6.10;99.90;;;;;;5020394;28;20144;-65
2024/01/31 10:01:08;;;;;;;3.60;2.05;;;6.10;99.90;;;;;;5021435;28;20037;-65
2024/01/31 10:03:34;;;;;;;13.07;2.42;;;6.10;99.90;;;;;;5019009;28;20091;-65
2024/01/31 10:06:09;;;;;;;5.18;1.73;;;6.10;99.90;;;;;;5012209;28;20428;-65
2024/01/31 10:08:35;;;;;;;2.05;1.65;;;6.10;99.90;;;;;;5017813;28;20046;-65
2024/01/31 10:11:01;;;;;;;6.05;1.58;;;6.00;99.90;;;;;;5020595;28;20136;-63
2024/01/31 10:13:27;;;;;;;6.78;1.52;;;6.10;99.90;;;;;;5017467;28;20511;-63
2024/01/31 10:15:53;;;;;;;5.13;2.72;;;6.10;99.90;;;;;;5019631;28;20041;-62
2024/01/31 10:18:19;;;;;;;3.03;1.83;;;6.10;99.90;;;;;;5019070;28;20121;-62
2024/01/31 10:20:51;;;;;;;6.95;2.83;;;6.10;99.90;;;;;;5018300;28;20038;-63
2024/01/31 10:23:17;;;;;;;4.97;1.38;;;6.10;99.90;;;;;;5015790;28;20056;-63
2024/01/31 10:25:42;;;;;;;4.93;3.22;;;6.10;99.90;;;;;;5020973;28;20468;-63
2024/01/31 10:28:08;;;;;;;6.18;4.18;;;6.10;99.90;;;;;;5020489;28;20042;-62
2024/01/31 10:30:43;;;;;;;2.72;2.22;;;6.20;99.90;;;;;;5023542;28;20045;-62
2024/01/31 10:33:10;;;;;;;6.15;3.03;;;6.10;98.10;;;;;;5012377;28;20046;-62
2024/01/31 10:35:37;;;;;;;4.38;2.83;;;6.10;97.70;;;;;;5020284;28;20049;-63
2024/01/31 10:38:04;;;;;;;8.15;5.40;;;6.10;95.60;;;;;;5020207;28;20056;-62
2024/01/31 10:40:39;;;;;;;5.82;4.47;;;6.20;96.20;;;;;;5024248;28;20055;-62
2024/01/31 10:43:07;;;;;;;6.80;4.30;;;6.20;98.50;;;;;;5021859;28;20296;-62
2024/01/31 10:45:34;;;;;;;7.03;5.20;;;6.30;97.70;;;;;;5024271;28;20073;-62
2024/01/31 10:48:02;;;;;;;4.03;3.63;;;6.30;99.70;;;;;;5021154;28;20087;-63
2024/01/31 10:50:29;;;;;;;5.50;4.72;;;6.40;97.30;;;;;;5021217;28;20088;-62
2024/01/31 10:52:55;;;;;;;7.90;5.20;;;6.30;96.80;;;;;;5024221;28;20114;-62
2024/01/31 10:55:22;;;;;;;6.72;4.80;;;6.40;96.00;;;;;;5022032;28;20052;-62
2024/01/31 10:57:48;;;;;;;4.88;3.67;;;6.40;97.00;;;;;;5024248;28;20064;-62
2024/01/31 11:00:30;;;;;;;5.50;4.95;;;6.50;96.20;;;;;;5020540;28;20615;-62
2024/01/31 11:02:57;;;;;;;5.93;3.80;;;6.50;96.30;;;;;;5022740;28;20049;-62
2024/01/31 11:05:31;;;;;;;6.95;5.80;;;6.50;94.30;;;;;;5022605;28;20037;-62
2024/01/31 11:07:58;;;;;;;6.28;4.07;;;6.50;94.20;;;;;;5005795;28;20076;-61
2024/01/31 11:10:26;;;;;;;5.50;2.67;;;6.60;96.00;;;;;;5024091;28;20045;-62
2024/01/31 11:13:05;;;;;;;5.60;3.42;;;6.60;92.70;;;;;;5022316;28;20044;-62
2024/01/31 11:15:34;;;;;;;6.05;4.45;;;6.70;92.10;;;;;;5022592;28;20049;-61
2024/01/31 11:18:11;;;;;;;11.55;5.30;;;6.70;93.00;;;;;;5005394;28;20110;-61
2024/01/31 11:20:49;;;;;;;3.20;2.90;;;6.80;93.80;;;;;;5022986;28;20484;-62
2024/01/31 11:23:16;;;;;;;5.63;3.45;;;6.80;87.70;;;;;;5009646;28;20109;-62
2024/01/31 11:25:44;;;;;;;5.55;4.35;;;6.80;84.20;;;;;;5000361;28;20515;-62
2024/01/31 11:28:11;;;;;;;6.70;5.50;;;6.80;28.10;;;;;;5022311;28;21434;-62
2024/01/31 11:30:39;;;;;;;7.28;5.07;;;6.90;29.50;;;;;;5017660;28;20042;-62
2024/01/31 11:33:06;;;;;;;2.72;2.53;;;6.90;29.70;;;;;;5018660;28;20077;-62
2024/01/31 11:35:35;;;;;;;8.48;5.70;;;6.90;31.10;;;;;;5017093;28;20045;-61
2024/01/31 11:38:01;;;;;;;5.32;4.13;;;7.00;30.10;;;;;;5015110;28;20510;-61
2024/01/31 11:40:29;;;;;;;6.30;4.78;;;7.00;31.50;;;;;;5022236;28;20049;-62
2024/01/31 11:42:56;;;;;;;7.45;3.83;;;7.00;31.90;;;;;;5019843;28;20037;-62
2024/01/31 11:45:25;;;;;;;4.40;4.00;;;7.00;35.10;;;;;;5022064;28;20568;-62
2024/01/31 11:47:53;;;;;;;3.17;2.30;;;7.10;33.30;;;;;;5016284;28;20136;-61
2024/01/31 11:50:24;;;;;;;3.72;2.95;;;7.00;29.50;;;;;;5023210;28;20084;-62
2024/01/31 11:52:51;;;;;;;5.10;3.35;;;7.00;28.50;;;;;;5023147;28;20124;-61
2024/01/31 11:55:28;;;;;;;3.45;2.55;;;7.00;30.10;;;;;;5020598;28;20050;-62
2024/01/31 11:57:54;;;;;;;6.88;3.92;;;7.00;29.80;;;;;;5022386;28;20084;-62
2024/01/31 12:00:20;;;;;;;3.13;2.50;;;7.00;28.70;;;;;;5019840;28;20045;-62
2024/01/31 12:02:50;;;;;;;2.30;2.05;;;7.00;29.50;;;;;;5014711;28;20081;-62
2024/01/31 12:05:15;;;;;;;4.03;2.90;;;7.00;30.40;;;;;;5019158;28;20515;-62
2024/01/31 12:07:43;;;;;;;3.95;2.63;;;7.00;28.80;;;;;;5021531;28;20046;-61
2024/01/31 12:10:09;;;;;;;5.68;3.72;;;7.00;30.40;;;;;;5021202;28;20500;-62
2024/01/31 12:12:41;;;;;;;6.68;3.03;;;7.00;26.20;;;;;;5019400;28;20089;-61
2024/01/31 12:15:12;;;;;;;3.78;3.30;;;7.00;22.90;;;;;;5019365;28;20172;-62
2024/01/31 12:17:39;;;;;;;3.85;3.15;;;6.90;22.90;;;;;;5021045;28;20111;-62
2024/01/31 12:20:08;;;;;;;5.25;2.83;;;7.00;22.90;;;;;;5023216;28;20480;-61
2024/01/31 12:22:36;;;;;;;4.22;2.95;;;6.90;22.10;;;;;;5020825;28;20107;-62
2024/01/31 12:25:02;;;;;;;6.72;3.80;;;6.90;24.30;;;;;;5022400;28;20324;-61
2024/01/31 12:27:28;;;;;;;3.97;3.50;;;7.00;23.70;;;;;;5021270;28;20045;-62
2024/01/31 12:29:53;;;;;;;2.95;2.65;;;6.90;23.40;;;;;;5021141;28;20693;-61
2024/01/31 12:32:19;;;;;;;7.30;3.72;;;6.90;22.90;;;;;;5021573;28;20064;-61
2024/01/31 12:34:45;;;;;;;4.15;3.20;;;6.90;23.10;;;;;;5019809;28;20119;-62
2024/01/31 12:37:12;;;;;;;3.75;3.45;;;7.00;25.60;;;;;;5020537;28;20056;-61
2024/01/31 12:39:38;;;;;;;3.20;2.90;;;6.90;24.70;;;;;;5019635;28;20045;-62
2024/01/31 12:42:06;;;;;;;6.75;3.30;;;6.90;23.40;;;;;;5016789;28;20400;-61
2024/01/31 12:44:32;;;;;;;3.53;3.22;;;6.90;23.00;;;;;;5015157;28;20045;-61
2024/01/31 12:46:58;;;;;;;3.90;2.90;;;6.90;25.40;;;;;;5018120;28;20041;-62
2024/01/31 12:49:24;;;;;;;3.85;3.58;;;6.90;22.70;;;;;;5021191;28;20143;-62
2024/01/31 12:51:50;;;;;;;4.13;3.50;;;6.90;24.90;;;;;;5020009;28;20533;-61
2024/01/31 12:54:16;;;;;;;2.35;1.92;;;6.90;27.20;;;;;;5019639;28;20137;-61